Kezdőlap
METAR-TAF:

METAR-TAF

Repülőterek :

Versec, Szerbia

földrajzi szélesség: 45-09N, földrajzi hosszúság: 021-19E, magasság: 83 m

Jelenlegi meteorológiai megfigyelések

A jelentés 39 perccel ezelõtt készült, 02:00 UTC
Délkeleti szél 32 kt széllökések: 52 kt
Hőmérséklet 13°C
Páratartalom 51%
Légköri nyomás 1017 hPa
Látótávolság 10 km, vagy több
felhőtlen 1500 m magasságban, és nincs gomolyfelhõ

METAR: LYVR 240200Z 13032G52KT CAVOK 13/03 Q1017 NOSIG

Idő: 04:39 (02:39 UTC)

Előrejelzés

A jelentés 3 órával és 39 perccel ezelõtt készült, 23:00 UTC
Az előrejelzés 24-én 00 óra UTC és 24-én 24 óra UTC között érvényes
Délkeleti szél 30 kt széllökések: 55 kt
Látótávolság 10 km, vagy több
felhőtlen 1500 m magasságban, és nincs gomolyfelhõ
24-én 08 óra UTC és 24-én 10 óra UTC között fokozatosan kialakuló
Délkeleti szél 20 kt széllökések: 40 kt

TAF: LYVR 232300Z 2400/2424 13030G55KT CAVOK TX20/2413Z TN10/2404Z BECMG 2408/2410 14020G40KT

Meteorológiai megfigyelések és előrejelzések több, mint 4000 repülőtéren (METAR és TAF jelentéseket).

A térképen piros és sárga pontok jelzik az elérhető meteorológiai állomásokat.

Mozgassa az egeret a pont fölött, hogy megjelenjen az állomás neve.

Azután kattintson az időjárási megfigyelések és előrejelzések megtekintéséhez.

A térkép megváltoztatása: kattintson a fekete keresztel jelölt zöld gombra ráközelítéshez, a vonallal jelölt zöld gombra távolításhoz, vagy a zöld nyilakra a szomszédos térképek eléréséhez.


METAR-TAF: